Time;durP1;ratioP1;P1;durP2;ratioP2;P2;SDS_P1;SDS_P2;PMS_P1;PMS_P2;Temp;Humidity;BMP_temperature;BMP_pressure;BME280_temperature;BME280_humidity;BME280_pressure;Samples;Min_cycle;Max_cycle;Signal;HPM_P1;HPM_P2
2022/03/23 00:02:09;;;;;;;11.80;4.30;;;;;;;9.65;53.92;102467.50;4979499;28;20046;-69
2022/03/23 00:04:34;;;;;;;9.32;4.15;;;;;;;9.62;54.13;102474.28;4987650;28;20161;-69
2022/03/23 00:06:59;;;;;;;7.25;3.60;;;;;;;9.61;53.96;102480.75;4987036;28;20495;-69
2022/03/23 00:09:26;;;;;;;10.45;4.47;;;;;;;9.56;54.47;102478.16;4984964;28;20113;-69
2022/03/23 00:11:52;;;;;;;10.27;4.13;;;;;;;9.49;54.22;102472.41;4982978;28;20048;-69
2022/03/23 00:14:18;;;;;;;10.02;4.20;;;;;;;9.44;54.45;102469.84;4993459;28;20034;-69
2022/03/23 00:16:43;;;;;;;8.27;3.97;;;;;;;9.42;54.87;102469.34;4975458;28;20048;-69
2022/03/23 00:19:09;;;;;;;9.68;4.10;;;;;;;9.37;55.19;102472.13;4986819;28;20026;-69
2022/03/23 00:21:36;;;;;;;12.20;4.70;;;;;;;9.35;54.79;102470.88;5001653;28;20418;-69
2022/03/23 00:24:02;;;;;;;10.85;4.45;;;;;;;9.30;55.45;102479.00;4993268;28;20121;-69
2022/03/23 00:26:27;;;;;;;10.18;4.85;;;;;;;9.30;55.53;102465.56;4960255;28;20133;-69
2022/03/23 00:28:54;;;;;;;10.02;4.18;;;;;;;9.29;56.01;102472.06;4959601;28;20422;-69
2022/03/23 00:31:20;;;;;;;10.27;4.60;;;;;;;9.27;56.29;102474.25;5010478;28;20102;-69
2022/03/23 00:33:47;;;;;;;9.88;4.43;;;;;;;9.27;55.82;102471.56;4993511;28;20125;-69
2022/03/23 00:36:12;;;;;;;11.65;4.55;;;;;;;9.30;55.84;102469.06;4973590;28;20030;-69
2022/03/23 00:38:38;;;;;;;12.43;4.90;;;;;;;9.27;55.99;102460.81;4975361;28;20525;-69
2022/03/23 00:41:04;;;;;;;8.45;4.28;;;;;;;9.24;56.00;102459.50;4993736;28;20113;-69
2022/03/23 00:43:30;;;;;;;9.02;4.20;;;;;;;9.18;55.61;102463.41;4992203;28;20034;-69
2022/03/23 00:45:56;;;;;;;9.57;5.20;;;;;;;9.14;55.92;102462.41;4991156;28;20038;-69
2022/03/23 00:48:24;;;;;;;10.75;4.85;;;;;;;9.09;56.05;102468.69;4974613;28;20057;-69
2022/03/23 00:50:53;;;;;;;11.77;4.53;;;;;;;9.09;56.56;102466.00;4993297;28;20046;-69
2022/03/23 00:53:19;;;;;;;15.07;5.28;;;;;;;9.12;56.64;102461.13;4992028;28;20145;-69
2022/03/23 00:55:44;;;;;;;10.10;4.10;;;;;;;9.10;56.12;102464.91;4973940;28;20549;-69
2022/03/23 00:58:10;;;;;;;9.02;4.50;;;;;;;8.98;56.06;102456.53;4991766;28;20077;-69
2022/03/23 01:00:35;;;;;;;12.25;5.07;;;;;;;8.97;56.05;102468.41;4992701;28;20034;-69
2022/03/23 01:03:02;;;;;;;7.97;3.80;;;;;;;8.94;56.10;102466.28;4969700;28;20108;-69
2022/03/23 01:05:28;;;;;;;9.95;4.55;;;;;;;8.92;56.04;102462.34;4990169;28;20027;-69
2022/03/23 01:07:54;;;;;;;9.30;4.50;;;;;;;8.93;56.29;102463.91;5003579;28;20088;-69
2022/03/23 01:10:21;;;;;;;9.90;5.45;;;;;;;8.95;56.33;102461.72;4979574;28;20026;-69
2022/03/23 01:12:47;;;;;;;9.80;4.20;;;;;;;8.91;56.10;102456.16;4973657;28;20037;-69
2022/03/23 01:15:19;;;;;;;12.88;4.95;;;;;;;8.86;55.92;102456.25;4968481;28;20035;-69
2022/03/23 01:17:45;;;;;;;13.73;4.88;;;;;;;8.86;55.97;102460.84;4976723;28;20660;-69
2022/03/23 01:20:14;;;;;;;9.55;3.78;;;;;;;8.79;56.25;102458.53;4988433;28;20118;-69
2022/03/23 01:22:40;;;;;;;12.90;4.40;;;;;;;8.79;56.50;102461.22;4983538;28;20042;-69
2022/03/23 01:25:08;;;;;;;12.80;4.82;;;;;;;8.75;56.39;102454.84;4994222;28;20395;-69
2022/03/23 01:27:34;;;;;;;14.57;5.05;;;;;;;8.77;56.08;102458.03;4973861;28;20057;-69
2022/03/23 01:30:01;;;;;;;15.15;4.97;;;;;;;8.74;56.27;102461.31;4990254;28;20629;-69
2022/03/23 01:32:26;;;;;;;11.73;4.22;;;;;;;8.75;56.46;102446.78;4996456;28;20026;-69
2022/03/23 01:34:52;;;;;;;12.70;4.43;;;;;;;8.74;56.65;102444.41;4994444;28;20104;-69
2022/03/23 01:37:17;;;;;;;19.88;5.15;;;;;;;8.71;56.46;102445.78;4993456;28;20403;-69
2022/03/23 01:39:43;;;;;;;13.27;5.15;;;;;;;8.66;56.68;102440.53;4959088;28;20034;-69
2022/03/23 01:42:09;;;;;;;16.60;5.35;;;;;;;8.65;57.72;102451.56;4990977;28;20030;-69
2022/03/23 01:44:34;;;;;;;20.25;5.07;;;;;;;8.62;57.40;102444.91;5003886;28;20034;-69
2022/03/23 01:47:11;;;;;;;14.38;5.40;;;;;;;8.61;57.40;102440.63;4973445;28;20030;-69
2022/03/23 01:49:47;;;;;;;13.98;5.35;;;;;;;8.62;57.20;102444.09;4974837;28;20092;-69
2022/03/23 01:52:15;;;;;;;10.85;4.95;;;;;;;8.60;56.74;102441.72;4972795;28;20038;-69
2022/03/23 01:54:41;;;;;;;13.25;5.47;;;;;;;8.53;57.26;102435.94;4980520;28;20031;-70
2022/03/23 01:57:09;;;;;;;12.75;4.63;;;;;;;8.53;57.69;102433.25;4972787;28;20510;-70
2022/03/23 01:59:36;;;;;;;19.00;5.50;;;;;;;8.56;57.59;102443.38;4989592;28;20049;-69
2022/03/23 02:02:03;;;;;;;22.70;4.82;;;;;;;8.54;57.25;102439.41;4977379;28;20037;-69
2022/03/23 02:04:32;;;;;;;20.40;5.30;;;;;;;8.50;57.17;102439.19;4979406;28;20027;-70
2022/03/23 02:06:57;;;;;;;15.98;5.07;;;;;;;8.47;57.24;102429.06;4969546;28;20494;-69
2022/03/23 02:09:27;;;;;;;19.73;6.60;;;;;;;8.49;57.53;102426.88;4981235;28;20117;-69
2022/03/23 02:11:54;;;;;;;14.50;5.18;;;;;;;8.45;56.99;102428.56;4974064;28;20034;-69
2022/03/23 02:14:20;;;;;;;27.27;6.20;;;;;;;8.43;56.88;102435.31;4954147;28;20415;-69
2022/03/23 02:16:48;;;;;;;11.65;5.10;;;;;;;8.45;57.29;102430.44;4996099;28;20053;-70
2022/03/23 02:19:14;;;;;;;18.85;6.22;;;;;;;8.41;56.57;102432.13;4974327;28;20062;-70
2022/03/23 02:21:47;;;;;;;15.25;6.07;;;;;;;8.34;57.26;102440.59;4974261;28;20049;-69
2022/03/23 02:24:14;;;;;;;17.75;6.07;;;;;;;8.32;57.42;102434.72;4986780;28;20250;-69
2022/03/23 02:26:40;;;;;;;21.48;5.55;;;;;;;8.24;58.06;102427.31;4970061;28;20042;-69
2022/03/23 02:29:06;;;;;;;13.02;5.25;;;;;;;8.23;58.05;102424.94;4980830;28;20149;-69
2022/03/23 02:31:32;;;;;;;13.82;5.72;;;;;;;8.17;58.93;102429.56;4973527;28;20104;-69
2022/03/23 02:33:58;;;;;;;12.02;5.32;;;;;;;8.15;58.62;102429.84;4961646;28;20052;-69
2022/03/23 02:36:24;;;;;;;18.27;5.97;;;;;;;8.08;59.42;102418.72;4978534;28;20038;-69
2022/03/23 02:38:49;;;;;;;11.52;5.40;;;;;;;8.07;59.51;102421.69;4990628;28;20109;-69
2022/03/23 02:41:15;;;;;;;18.25;6.50;;;;;;;8.03;59.56;102418.00;4991299;28;20034;-69
2022/03/23 02:43:41;;;;;;;17.08;6.60;;;;;;;8.01;60.40;102417.50;4989494;28;20084;-69
2022/03/23 02:46:12;;;;;;;21.67;6.07;;;;;;;7.99;60.60;102422.38;5003956;28;20034;-69
2022/03/23 02:48:37;;;;;;;;;;;;;;;7.99;59.94;102425.06;4989902;28;20407;-69
2022/03/23 02:51:03;;;;;;;14.07;5.63;;;;;;;7.94;60.18;102417.06;4989185;28;19968;-69
2022/03/23 03:02:19;;;;;;;12.73;5.45;;;;;;;7.98;61.23;102420.75;4989717;28;20065;-69
2022/03/23 03:04:45;;;;;;;9.98;4.60;;;;;;;7.93;60.94;102424.34;4993758;28;20489;-69
2022/03/23 03:07:10;;;;;;;10.65;4.78;;;;;;;7.97;61.50;102425.34;4982490;28;20042;-69
2022/03/23 03:09:36;;;;;;;11.15;5.00;;;;;;;7.88;62.09;102427.09;4984403;28;20092;-69
2022/03/23 03:12:02;;;;;;;15.02;5.45;;;;;;;7.83;61.97;102424.50;4992914;28;20038;-69
2022/03/23 03:14:29;;;;;;;11.80;4.57;;;;;;;7.78;61.91;102431.81;4988469;28;20527;-69
2022/03/23 03:16:55;;;;;;;10.43;4.85;;;;;;;7.71;62.61;102426.00;4973287;28;20033;-69
2022/03/23 03:19:21;;;;;;;9.90;4.72;;;;;;;7.66;62.15;102424.22;4997862;28;20031;-69
2022/03/23 03:21:46;;;;;;;9.60;4.95;;;;;;;7.66;62.78;102424.22;4993314;28;20486;-69
2022/03/23 03:24:12;;;;;;;12.25;5.85;;;;;;;7.63;62.52;102429.34;4985512;28;20117;-69
2022/03/23 03:26:37;;;;;;;13.13;4.95;;;;;;;7.58;62.39;102430.25;4994197;28;20038;-69
2022/03/23 03:29:04;;;;;;;19.23;6.32;;;;;;;7.49;62.30;102428.50;4976365;28;20502;-69
2022/03/23 03:31:30;;;;;;;16.60;6.75;;;;;;;7.40;62.94;102431.03;4993334;28;20045;-69
2022/03/23 03:33:56;;;;;;;17.55;7.25;;;;;;;7.32;62.94;102435.16;4991311;28;20042;-69
2022/03/23 03:36:22;;;;;;;12.50;6.30;;;;;;;7.25;63.46;102436.59;4998499;28;20034;-69
2022/03/23 03:38:47;;;;;;;15.43;6.13;;;;;;;7.21;63.86;102431.03;4993711;28;20526;-69
2022/03/23 03:41:13;;;;;;;19.85;6.88;;;;;;;7.22;64.45;102435.28;4993829;28;20042;-69
2022/03/23 03:43:39;;;;;;;19.65;5.63;;;;;;;7.22;63.98;102434.47;4990455;28;20038;-70
2022/03/23 03:46:06;;;;;;;15.55;6.28;;;;;;;7.21;63.79;102436.38;4982511;28;20518;-70
2022/03/23 03:48:32;;;;;;;18.42;7.03;;;;;;;7.15;64.19;102437.53;4972733;28;20081;-69
2022/03/23 03:50:57;;;;;;;14.98;6.30;;;;;;;7.16;64.12;102439.09;4972234;28;20038;-69
2022/03/23 03:53:23;;;;;;;15.18;5.72;;;;;;;7.12;63.87;102434.63;4997818;28;20037;-69
2022/03/23 03:55:49;;;;;;;17.00;6.00;;;;;;;7.11;64.13;102443.72;4987084;28;20049;-69
2022/03/23 03:58:14;;;;;;;12.70;5.15;;;;;;;7.06;64.28;102433.09;4992723;28;20038;-69
2022/03/23 04:00:40;;;;;;;28.95;5.93;;;;;;;6.95;64.57;102435.06;4990310;28;20177;-69
2022/03/23 04:03:06;;;;;;;15.32;5.65;;;;;;;6.88;64.99;102439.19;4998926;28;20042;-69
2022/03/23 04:05:35;;;;;;;13.40;5.50;;;;;;;6.80;65.68;102440.63;4991066;28;20369;-69
2022/03/23 04:08:01;;;;;;;15.65;6.15;;;;;;;6.77;65.95;102433.16;5003062;28;20034;-69
2022/03/23 04:10:27;;;;;;;25.27;5.95;;;;;;;6.72;65.18;102438.56;4994129;28;20030;-69
2022/03/23 04:12:53;;;;;;;9.85;4.63;;;;;;;6.68;66.33;102445.56;4993805;28;20050;-69
2022/03/23 04:15:20;;;;;;;36.58;6.03;;;;;;;6.64;66.25;102436.50;4972762;28;20076;-69
2022/03/23 04:17:47;;;;;;;20.75;5.93;;;;;;;6.62;66.64;102440.56;4956277;28;20510;-69
2022/03/23 04:20:13;;;;;;;12.15;4.97;;;;;;;6.63;67.34;102436.78;4982070;28;20038;-71
2022/03/23 04:22:38;;;;;;;10.63;4.88;;;;;;;6.66;67.16;102439.69;4989852;28;20065;-70
2022/03/23 04:25:09;;;;;;;10.80;5.28;;;;;;;6.58;67.47;102439.53;4983390;28;20041;-71
2022/03/23 04:27:44;;;;;;;16.33;5.22;;;;;;;6.56;67.41;102431.78;4993275;28;20068;-71
2022/03/23 04:30:11;;;;;;;12.45;5.07;;;;;;;6.52;68.04;102430.75;4994123;28;20049;-71
2022/03/23 04:32:36;;;;;;;15.20;5.93;;;;;;;6.52;67.53;102440.66;4988259;28;20121;-71
2022/03/23 04:35:02;;;;;;;14.35;4.40;;;;;;;6.56;68.03;102441.69;4992895;28;20109;-71
2022/03/23 04:37:27;;;;;;;11.27;5.28;;;;;;;6.59;68.08;102439.25;4980085;28;20039;-69
2022/03/23 04:39:52;;;;;;;12.35;4.93;;;;;;;6.59;68.22;102438.44;4974905;28;20426;-71
2022/03/23 04:42:18;;;;;;;11.05;4.82;;;;;;;6.56;68.09;102445.16;4980517;28;20073;-71
2022/03/23 04:44:43;;;;;;;9.80;5.00;;;;;;;6.51;68.60;102442.53;4970427;28;20113;-71
2022/03/23 04:47:09;;;;;;;11.23;4.40;;;;;;;6.49;68.33;102442.00;4990929;28;20133;-71
2022/03/23 04:49:34;;;;;;;14.93;4.00;;;;;;;6.46;68.30;102441.78;5012504;28;20462;-70
2022/03/23 04:51:59;;;;;;;11.50;4.35;;;;;;;6.47;68.55;102438.81;4998531;28;20044;-71
2022/03/23 04:54:25;;;;;;;28.92;4.38;;;;;;;6.46;69.28;102444.47;4979478;28;20034;-71
2022/03/23 04:56:50;;;;;;;20.27;5.10;;;;;;;6.44;69.43;102443.94;4988968;28;20478;-71
2022/03/23 04:59:16;;;;;;;9.63;4.97;;;;;;;6.47;68.98;102443.38;4991056;28;20081;-69
2022/03/23 05:01:41;;;;;;;13.98;5.07;;;;;;;6.39;69.74;102442.91;4982904;28;20046;-69
2022/03/23 05:04:06;;;;;;;9.98;3.85;;;;;;;6.37;70.17;102444.25;4985696;28;20076;-69
2022/03/23 05:06:32;;;;;;;9.88;3.65;;;;;;;6.35;70.11;102441.06;4993162;28;20112;-70
2022/03/23 05:08:57;;;;;;;15.57;4.25;;;;;;;6.39;69.81;102456.28;4990969;28;20450;-70
2022/03/23 05:11:23;;;;;;;9.32;4.05;;;;;;;6.36;70.21;102453.38;4997251;28;20026;-70
2022/03/23 05:13:49;;;;;;;7.40;3.33;;;;;;;6.35;70.52;102449.09;4974384;28;20368;-71
2022/03/23 05:16:14;;;;;;;19.23;3.80;;;;;;;6.38;70.75;102451.22;4991330;28;20057;-69
2022/03/23 05:18:41;;;;;;;4.30;2.83;;;;;;;6.40;70.22;102443.72;4989093;28;20506;-69
2022/03/23 05:21:07;;;;;;;7.20;3.22;;;;;;;6.45;70.36;102440.19;4997954;28;20034;-69
2022/03/23 05:23:32;;;;;;;7.50;3.05;;;;;;;6.44;69.84;102450.09;4991947;28;20615;-69
2022/03/23 05:25:57;;;;;;;4.65;2.78;;;;;;;6.41;70.63;102441.84;4990530;28;20037;-69
2022/03/23 05:28:23;;;;;;;6.50;3.25;;;;;;;6.42;70.11;102446.09;4971801;28;20058;-69
2022/03/23 05:30:48;;;;;;;7.03;3.80;;;;;;;6.41;69.76;102456.00;4986439;28;20042;-69
2022/03/23 05:33:13;;;;;;;21.52;4.13;;;;;;;6.38;70.22;102451.22;4971168;28;20045;-69
2022/03/23 05:35:39;;;;;;;4.18;2.70;;;;;;;6.38;70.70;102454.72;4978723;28;20042;-69
2022/03/23 05:38:04;;;;;;;9.23;3.78;;;;;;;6.42;70.45;102462.16;4984171;28;20038;-69
2022/03/23 05:40:30;;;;;;;7.88;2.83;;;;;;;6.44;70.49;102457.31;4969310;28;20200;-69
2022/03/23 05:42:55;;;;;;;9.98;3.25;;;;;;;6.43;70.14;102456.53;4982503;28;20534;-69
2022/03/23 05:45:20;;;;;;;6.43;3.47;;;;;;;6.44;70.41;102452.78;4980264;28;20399;-69
2022/03/23 05:47:46;;;;;;;9.10;4.05;;;;;;;6.47;71.17;102457.56;4982608;28;20026;-69
2022/03/23 05:50:11;;;;;;;7.53;3.38;;;;;;;6.49;70.37;102457.25;4981765;28;20578;-69
2022/03/23 05:52:38;;;;;;;7.53;3.75;;;;;;;6.47;70.02;102451.41;4963313;28;20570;-69
2022/03/23 05:55:07;;;;;;;5.72;2.78;;;;;;;6.42;70.94;102457.59;4976287;28;20395;-69
2022/03/23 05:57:33;;;;;;;6.82;3.55;;;;;;;6.42;71.21;102452.25;4983263;28;20386;-69
2022/03/23 05:59:58;;;;;;;7.97;3.95;;;;;;;6.44;71.31;102460.00;4983291;28;20041;-69
2022/03/23 06:02:23;;;;;;;7.13;3.53;;;;;;;6.50;71.45;102465.03;4981972;28;20068;-69
2022/03/23 06:04:49;;;;;;;7.38;3.38;;;;;;;6.54;71.58;102459.91;4990186;28;20542;-69
2022/03/23 06:07:14;;;;;;;6.47;3.33;;;;;;;6.57;70.86;102470.84;4950782;28;20031;-69
2022/03/23 06:09:40;;;;;;;6.32;3.40;;;;;;;6.55;70.86;102456.94;4989123;28;20506;-69
2022/03/23 06:12:05;;;;;;;5.10;2.67;;;;;;;6.57;70.67;102464.69;4991584;28;20407;-69
2022/03/23 06:14:32;;;;;;;8.55;3.28;;;;;;;6.62;71.13;102470.78;4984087;28;20521;-69
2022/03/23 06:16:57;;;;;;;8.98;2.40;;;;;;;6.68;71.49;102469.66;4983542;28;20045;-69
2022/03/23 06:19:23;;;;;;;13.32;3.50;;;;;;;6.73;71.20;102474.16;4989888;28;20030;-69
2022/03/23 06:21:48;;;;;;;10.02;3.55;;;;;;;6.77;70.79;102478.69;4977021;28;20395;-69
2022/03/23 06:24:14;;;;;;;6.78;2.60;;;;;;;6.86;70.33;102468.94;4977622;28;20049;-69
2022/03/23 06:26:39;;;;;;;5.65;3.08;;;;;;;6.93;70.52;102474.72;4973800;28;20034;-69
2022/03/23 06:29:05;;;;;;;19.98;3.67;;;;;;;7.02;70.24;102480.28;4977789;28;20042;-69
2022/03/23 06:31:30;;;;;;;5.47;2.95;;;;;;;7.07;70.73;102474.84;4983759;28;20039;-69
2022/03/23 06:33:55;;;;;;;8.52;3.35;;;;;;;7.16;69.72;102473.16;4985859;28;20038;-69
2022/03/23 06:36:21;;;;;;;13.57;3.10;;;;;;;7.24;69.92;102480.53;4976300;28;20480;-69
2022/03/23 06:38:48;;;;;;;8.02;3.00;;;;;;;7.33;68.86;102484.19;4981161;28;20403;-69
2022/03/23 06:41:13;;;;;;;7.25;2.65;;;;;;;7.43;67.94;102483.25;4959591;28;20373;-69
2022/03/23 06:43:39;;;;;;;10.15;3.17;;;;;;;7.47;67.52;102478.91;4984454;28;20030;-69
2022/03/23 06:46:05;;;;;;;6.68;3.20;;;;;;;7.53;66.59;102483.13;4965540;28;20030;-69
2022/03/23 06:48:30;;;;;;;12.40;3.72;;;;;;;7.60;65.83;102489.72;4973432;28;20043;-70
2022/03/23 06:50:56;;;;;;;11.05;3.63;;;;;;;7.72;66.16;102486.63;4981534;28;20038;-69
2022/03/23 06:53:21;;;;;;;7.90;2.47;;;;;;;7.86;65.83;102492.81;4966457;28;20522;-70
2022/03/23 06:55:47;;;;;;;13.40;3.30;;;;;;;7.99;64.69;102495.56;4983133;28;20038;-70
2022/03/23 06:58:12;;;;;;;6.60;3.92;;;;;;;8.13;64.40;102498.31;4984358;28;20053;-69
2022/03/23 07:00:39;;;;;;;7.13;3.35;;;;;;;8.29;63.63;102497.03;4998912;28;20030;-70
2022/03/23 07:03:05;;;;;;;9.10;3.15;;;;;;;8.44;62.97;102496.75;4966959;28;20120;-70
2022/03/23 07:05:31;;;;;;;6.18;2.70;;;;;;;8.57;61.77;102497.91;4987585;28;20192;-69
2022/03/23 07:10:40;;;;;;;13.20;3.22;;;;;;;8.86;59.94;102507.31;4994573;28;20042;-70
2022/03/23 07:13:06;;;;;;;6.25;3.15;;;;;;;8.99;59.77;102511.88;4991966;28;20044;-71
2022/03/23 07:15:31;;;;;;;7.43;3.40;;;;;;;9.07;58.61;102516.56;4975893;28;20026;-69
2022/03/23 07:17:57;;;;;;;9.95;3.50;;;;;;;9.20;58.12;102511.47;4958774;28;20069;-70
2022/03/23 07:20:24;;;;;;;5.72;2.90;;;;;;;9.33;57.42;102508.78;4972600;28;20050;-70
2022/03/23 07:22:49;;;;;;;6.60;2.55;;;;;;;9.43;56.54;102513.94;4979228;28;20042;-70
2022/03/23 07:25:15;;;;;;;12.65;2.40;;;;;;;9.56;56.15;102509.66;4974572;28;20038;-70
2022/03/23 07:27:41;;;;;;;9.57;2.95;;;;;;;9.70;55.82;102513.09;4984858;28;20045;-70
2022/03/23 07:30:07;;;;;;;7.47;2.72;;;;;;;9.80;56.15;102512.88;4986862;28;20030;-70
2022/03/23 07:32:33;;;;;;;5.82;3.40;;;;;;;10.00;54.78;102509.75;4985675;28;20395;-70
2022/03/23 07:34:58;;;;;;;6.50;3.17;;;;;;;10.15;54.64;102511.28;4984688;28;20037;-70
2022/03/23 07:37:24;;;;;;;7.28;3.63;;;;;;;10.35;54.68;102522.41;5001460;28;20038;-70
2022/03/23 07:39:50;;;;;;;6.32;2.95;;;;;;;10.59;53.20;102519.34;5009070;28;20113;-69
2022/03/23 07:42:15;;;;;;;12.20;4.13;;;;;;;10.81;51.79;102516.63;4984525;28;20042;-70
2022/03/23 07:44:41;;;;;;;6.13;3.92;;;;;;;11.02;49.76;102523.06;4993949;28;20047;-69
2022/03/23 07:47:10;;;;;;;13.98;4.15;;;;;;;11.28;49.37;102528.56;5004252;28;20089;-70
2022/03/23 07:49:36;;;;;;;8.45;3.00;;;;;;;11.51;48.48;102524.66;4987736;28;20042;-70
2022/03/23 07:52:02;;;;;;;23.67;3.53;;;;;;;11.69;46.15;102529.00;4986092;28;20026;-70
2022/03/23 07:54:28;;;;;;;8.27;2.78;;;;;;;11.92;46.55;102529.66;4987572;28;20034;-69
2022/03/23 07:56:53;;;;;;;10.00;3.15;;;;;;;12.02;45.62;102523.94;5001206;28;20041;-68
2022/03/23 07:59:19;;;;;;;12.50;3.58;;;;;;;12.20;45.12;102533.59;4994446;28;20037;-70
2022/03/23 08:01:44;;;;;;;20.63;3.38;;;;;;;12.40;44.51;102541.06;5010568;28;20038;-70
2022/03/23 08:04:10;;;;;;;6.85;2.75;;;;;;;12.52;44.00;102535.81;4996490;28;20039;-69
2022/03/23 08:06:36;;;;;;;6.57;3.55;;;;;;;12.72;44.35;102532.41;5000311;28;20046;-70
2022/03/23 08:09:03;;;;;;;5.50;3.35;;;;;;;12.90;43.05;102538.56;5011773;28;20164;-70
2022/03/23 08:11:29;;;;;;;7.57;3.25;;;;;;;13.11;43.83;102531.34;4998550;28;20060;-70
2022/03/23 08:13:55;;;;;;;5.60;3.00;;;;;;;13.34;43.31;102524.53;4991602;28;20474;-69
2022/03/23 08:16:20;;;;;;;7.55;3.22;;;;;;;13.46;42.82;102527.34;4991893;28;20495;-70
2022/03/23 08:18:45;;;;;;;9.18;2.97;;;;;;;13.55;42.89;102536.19;5003315;28;20072;-69
2022/03/23 08:21:11;;;;;;;8.25;3.30;;;;;;;13.69;42.15;102535.94;4998045;28;20461;-70
2022/03/23 08:23:38;;;;;;;6.82;3.42;;;;;;;13.83;42.00;102539.19;4988180;28;20060;-70
2022/03/23 08:26:08;;;;;;;10.98;2.72;;;;;;;13.98;41.42;102527.75;5002641;28;20033;-70
2022/03/23 08:28:34;;;;;;;21.17;3.13;;;;;;;14.16;41.32;102535.44;4995695;28;20049;-70
2022/03/23 08:30:59;;;;;;;39.90;3.78;;;;;;;14.33;41.58;102531.78;4987287;28;20065;-68
2022/03/23 08:33:25;;;;;;;4.78;2.58;;;;;;;14.51;40.95;102541.34;4986300;28;20076;-69
2022/03/23 08:35:50;;;;;;;5.22;2.40;;;;;;;14.64;40.34;102542.97;4992888;28;20049;-70
2022/03/23 08:38:16;;;;;;;6.55;3.00;;;;;;;14.83;39.39;102537.78;4996960;28;20171;-69
2022/03/23 08:40:41;;;;;;;7.03;2.65;;;;;;;15.01;37.90;102541.09;5001175;28;20157;-68
2022/03/23 08:43:06;;;;;;;6.13;2.45;;;;;;;15.08;38.72;102541.31;4999216;28;20068;-69
2022/03/23 08:45:32;;;;;;;5.05;2.20;;;;;;;15.20;39.26;102536.72;4958581;28;20049;-70
2022/03/23 08:47:57;;;;;;;6.07;2.92;;;;;;;15.34;38.49;102541.78;4977390;28;20038;-69
2022/03/23 08:50:23;;;;;;;3.22;1.95;;;;;;;15.48;38.28;102536.84;4989420;28;20046;-69
2022/03/23 08:52:48;;;;;;;7.03;2.92;;;;;;;15.60;39.26;102546.91;4996460;28;20026;-70
2022/03/23 08:55:19;;;;;;;6.40;2.88;;;;;;;15.67;38.49;102545.19;4988178;28;20026;-68
2022/03/23 08:57:45;;;;;;;5.57;2.97;;;;;;;15.80;38.31;102541.31;4986118;28;20030;-69
2022/03/23 09:00:31;;;;;;;3.95;2.13;;;;;;;15.97;36.71;102554.63;4977007;28;20045;-69
2022/03/23 09:02:57;;;;;;;4.93;2.30;;;;;;;16.23;36.63;102546.84;4913301;29;20577;-70
2022/03/23 09:05:23;;;;;;;6.40;2.63;;;;;;;16.43;34.75;102550.50;4916284;29;20052;-69
2022/03/23 09:07:48;;;;;;;6.43;2.83;;;;;;;16.72;33.58;102557.50;4904687;29;20436;-70
2022/03/23 09:10:15;;;;;;;4.38;2.63;;;;;;;16.79;34.06;102563.13;4891407;29;20500;-69
2022/03/23 09:12:42;;;;;;;5.05;2.45;;;;;;;17.03;33.58;102555.56;4909250;29;20492;-70
2022/03/23 09:15:09;;;;;;;6.43;3.20;;;;;;;17.02;33.61;102554.00;4909221;29;20076;-69
2022/03/23 09:17:35;;;;;;;7.38;3.00;;;;;;;17.06;33.45;102557.63;4910184;29;20486;-69
2022/03/23 09:20:01;;;;;;;5.35;2.63;;;;;;;17.05;33.69;102555.25;4906066;29;20135;-69
2022/03/23 09:22:27;;;;;;;7.22;2.75;;;;;;;17.13;34.26;102556.97;4910109;29;20172;-69
2022/03/23 09:24:53;;;;;;;6.63;2.28;;;;;;;17.26;33.61;102560.41;4904444;29;20036;-70
2022/03/23 09:27:19;;;;;;;4.47;2.40;;;;;;;17.51;33.16;102556.38;4905108;29;20224;-69
2022/03/23 09:29:45;;;;;;;4.88;2.22;;;;;;;17.52;33.30;102557.94;4907709;29;20044;-69
2022/03/23 09:32:12;;;;;;;7.47;3.00;;;;;;;17.58;33.45;102545.63;4903326;29;20032;-69
2022/03/23 09:34:38;;;;;;;6.50;2.80;;;;;;;17.72;33.71;102556.84;4906887;29;20078;-70
2022/03/23 09:39:51;;;;;;;5.30;2.58;;;;;;;18.19;32.17;102564.84;4944239;28;20477;-69
2022/03/23 09:42:18;;;;;;;7.78;3.00;;;;;;;18.25;32.75;102556.03;4976479;28;20035;-69
2022/03/23 09:44:47;;;;;;;6.25;2.63;;;;;;;18.43;32.94;102553.63;4971812;28;20043;-69
2022/03/23 09:47:13;;;;;;;7.22;2.88;;;;;;;18.43;32.53;102548.19;4969798;28;20527;-69
2022/03/23 09:49:39;;;;;;;7.28;3.30;;;;;;;18.39;32.78;102559.00;4973008;28;20130;-68
2022/03/23 09:52:05;;;;;;;5.57;2.80;;;;;;;18.45;33.05;102557.59;4989232;28;20048;-69
2022/03/23 09:54:31;;;;;;;7.72;2.83;;;;;;;18.48;33.37;102550.63;4983576;28;20035;-69
2022/03/23 09:56:56;;;;;;;6.15;2.72;;;;;;;18.47;33.28;102546.31;4987395;28;20046;-69
2022/03/23 09:59:22;;;;;;;4.57;2.92;;;;;;;18.66;33.06;102538.13;4985763;28;20046;-69
2022/03/23 10:01:47;;;;;;;9.10;3.40;;;;;;;18.65;31.73;102550.97;4979523;28;20045;-69
2022/03/23 10:04:12;;;;;;;7.10;2.63;;;;;;;18.60;32.59;102548.50;4980314;28;20533;-69
2022/03/23 10:06:50;;;;;;;4.55;2.00;;;;;;;18.76;32.88;102543.75;4976316;28;20077;-69
2022/03/23 10:09:25;;;;;;;4.75;2.28;;;;;;;19.14;31.62;102551.03;4988194;28;20129;-69
2022/03/23 10:12:28;;;;;;;7.10;2.95;;;;;;;19.14;31.63;102550.22;4983218;28;20042;-69
2022/03/23 10:14:54;;;;;;;6.00;2.45;;;;;;;19.15;31.99;102536.19;4981669;28;20089;-69
2022/03/23 10:17:54;;;;;;;5.05;2.83;;;;;;;19.19;31.98;102537.03;4966765;28;20039;-69
2022/03/23 10:20:20;;;;;;;6.60;2.60;;;;;;;19.26;31.41;102542.59;4980557;28;20073;-69
2022/03/23 10:22:51;;;;;;;7.80;2.85;;;;;;;19.39;32.38;102535.03;4983870;28;20411;-69
2022/03/23 10:25:19;;;;;;;6.30;2.72;;;;;;;19.56;32.05;102539.97;4986442;28;20142;-69
2022/03/23 10:27:45;;;;;;;6.32;2.70;;;;;;;19.48;31.28;102533.59;4973631;28;20042;-69
2022/03/23 10:30:13;;;;;;;8.40;3.15;;;;;;;19.41;31.56;102538.97;4981386;28;20027;-69
2022/03/23 10:32:42;;;;;;;7.50;3.00;;;;;;;19.32;31.51;102538.44;4983238;28;20035;-69
2022/03/23 10:35:15;;;;;;;5.53;2.97;;;;;;;19.29;32.48;102539.16;4975349;28;20034;-69
2022/03/23 10:37:41;;;;;;;7.30;2.63;;;;;;;19.26;31.71;102531.69;4980745;28;20042;-69
2022/03/23 10:40:10;;;;;;;5.90;2.35;;;;;;;19.24;32.11;102534.00;4976149;28;20043;-69
2022/03/23 10:42:39;;;;;;;5.72;2.65;;;;;;;19.25;31.89;102527.38;4979879;28;20078;-69
2022/03/23 10:45:12;;;;;;;7.60;2.90;;;;;;;19.33;32.78;102526.38;4999697;28;20392;-69
2022/03/23 10:47:39;;;;;;;7.70;2.78;;;;;;;19.50;32.98;102522.31;4990468;28;20038;-69
2022/03/23 10:50:15;;;;;;;5.18;2.53;;;;;;;19.49;34.06;102523.47;4992971;28;20411;-69
2022/03/23 10:52:59;;;;;;;7.30;2.95;;;;;;;19.61;34.40;102521.28;4996062;28;20501;-69
2022/03/23 10:55:30;;;;;;;6.05;2.60;;;;;;;19.72;34.26;102521.44;4987807;28;20502;-69
2022/03/23 10:58:01;;;;;;;12.95;3.22;;;;;;;19.67;33.29;102517.06;4965322;28;20592;-69
2022/03/23 11:00:30;;;;;;;6.28;2.42;;;;;;;19.59;33.57;102512.66;4975584;28;20046;-69
2022/03/23 11:02:57;;;;;;;6.03;2.95;;;;;;;19.71;33.93;102506.19;4984419;28;20501;-69
2022/03/23 11:05:33;;;;;;;9.23;3.50;;;;;;;19.80;33.55;102512.19;4968799;28;20590;-69
2022/03/23 11:08:21;;;;;;;7.40;2.90;;;;;;;19.78;34.56;102501.59;4987634;28;20069;-69
2022/03/23 11:16:27;;;;;;;5.80;2.47;;;;;;;20.13;34.50;102503.94;4991221;28;20117;-69
2022/03/23 11:19:11;;;;;;;8.20;3.10;;;;;;;20.08;35.53;102500.75;4982684;28;20042;-69
2022/03/23 11:22:09;;;;;;;7.60;3.03;;;;;;;20.14;35.72;102507.47;4972018;28;20031;-69
2022/03/23 11:24:38;;;;;;;7.30;3.10;;;;;;;20.29;35.67;102506.50;4963049;28;20050;-69
2022/03/23 11:27:08;;;;;;;6.95;2.97;;;;;;;20.21;34.88;102500.16;4986232;28;20097;-69
2022/03/23 11:29:36;;;;;;;8.10;2.85;;;;;;;20.21;34.58;102494.69;4989572;28;20026;-68
2022/03/23 11:32:28;;;;;;;6.75;2.80;;;;;;;20.37;34.07;102494.47;4987866;28;20096;-69
2022/03/23 11:34:56;;;;;;;6.55;2.72;;;;;;;20.29;34.66;102492.81;4993760;28;20060;-69
2022/03/23 11:37:23;;;;;;;6.70;2.78;;;;;;;20.19;35.20;102488.03;4989254;28;20493;-69
2022/03/23 11:39:51;;;;;;;5.93;2.28;;;;;;;20.35;35.41;102489.38;5001746;28;20045;-69
2022/03/23 11:42:18;;;;;;;10.57;2.80;;;;;;;20.30;35.64;102486.19;4998978;28;20129;-69
2022/03/23 11:44:46;;;;;;;5.43;2.80;;;;;;;20.63;34.47;102488.84;4990672;28;20478;-69
2022/03/23 11:47:28;;;;;;;6.72;2.97;;;;;;;20.59;35.17;102488.03;4989484;28;20066;-69